createdAt,value
2019-03-19T00:01:46.966Z,75.30
2019-03-19T00:04:17.808Z,75.29
2019-03-19T00:06:48.084Z,75.67
2019-03-19T00:09:18.305Z,75.95
2019-03-19T00:11:48.518Z,76.12
2019-03-19T00:14:21.178Z,75.98
2019-03-19T00:16:51.279Z,75.67
2019-03-19T00:19:22.552Z,75.36
2019-03-19T00:21:54.184Z,75.07
2019-03-19T00:24:27.531Z,75.11
2019-03-19T00:26:57.672Z,74.81
2019-03-19T00:29:27.818Z,74.95
2019-03-19T00:32:01.112Z,74.66
2019-03-19T00:34:31.272Z,74.61
2019-03-19T00:37:02.556Z,74.76
2019-03-19T00:39:33.428Z,75.17
2019-03-19T00:42:03.574Z,75.79
2019-03-19T00:44:35.429Z,75.97
2019-03-19T00:47:06.026Z,75.18
2019-03-19T00:49:39.093Z,75.18
2019-03-19T00:52:10.611Z,75.57
2019-03-19T00:54:42.862Z,75.67
2019-03-19T00:57:13.596Z,75.78
2019-03-19T00:59:44.275Z,75.94
2019-03-19T01:02:17.463Z,76.12
2019-03-19T01:04:49.508Z,76.18
2019-03-19T01:07:20.711Z,76.11
2019-03-19T01:09:51.001Z,75.65
2019-03-19T01:12:24.333Z,75.53
2019-03-19T01:14:57.773Z,75.40
2019-03-19T01:17:27.952Z,75.25
2019-03-19T01:19:58.113Z,74.97
2019-03-19T01:22:28.272Z,74.68
2019-03-19T01:24:58.535Z,75.02
2019-03-19T01:27:28.767Z,75.49
2019-03-19T01:29:59.437Z,75.89
2019-03-19T01:32:30.065Z,75.80
2019-03-19T01:35:01.577Z,75.86
2019-03-19T01:37:34.036Z,75.62
2019-03-19T01:40:04.689Z,75.63
2019-03-19T01:42:37.778Z,75.73
2019-03-19T01:45:08.285Z,76.31
2019-03-19T01:47:38.482Z,76.35
2019-03-19T01:50:09.138Z,76.57
2019-03-19T01:52:39.298Z,76.32
2019-03-19T01:55:10.298Z,76.45
2019-03-19T01:57:40.454Z,76.55
2019-03-19T02:00:11.177Z,76.46
2019-03-19T02:02:41.467Z,76.29
2019-03-19T02:05:13.441Z,76.43
2019-03-19T02:07:43.629Z,76.34
2019-03-19T02:10:14.701Z,76.04
2019-03-19T02:12:48.334Z,76.12
2019-03-19T02:15:18.566Z,76.17
2019-03-19T02:17:50.605Z,76.19
2019-03-19T02:20:22.140Z,76.01
2019-03-19T02:22:53.603Z,75.98
2019-03-19T02:25:26.211Z,75.64
2019-03-19T02:28:01.285Z,75.07
2019-03-19T02:30:31.758Z,74.92
2019-03-19T02:33:02.736Z,75.07
2019-03-19T02:35:33.058Z,75.53
2019-03-19T02:38:03.317Z,75.69
2019-03-19T02:40:33.559Z,76.11
2019-03-19T02:43:05.109Z,76.83
2019-03-19T02:45:35.332Z,77.08
2019-03-19T02:48:05.579Z,77.78
2019-03-19T02:50:35.750Z,77.69
2019-03-19T02:53:06.459Z,78.31
2019-03-19T02:55:38.140Z,78.23
2019-03-19T02:58:08.271Z,78.44
2019-03-19T03:00:38.759Z,78.53
2019-03-19T03:03:08.978Z,78.76
2019-03-19T03:05:39.161Z,79.04
2019-03-19T03:08:09.358Z,79.05
2019-03-19T03:10:39.581Z,79.18
2019-03-19T03:13:09.779Z,79.19
2019-03-19T03:15:39.989Z,78.97
2019-03-19T03:18:10.126Z,79.26
2019-03-19T03:20:43.212Z,79.06
2019-03-19T03:23:13.375Z,79.12
2019-03-19T03:25:43.785Z,79.63
2019-03-19T03:28:17.208Z,79.30
2019-03-19T03:30:49.778Z,79.41
2019-03-19T03:33:20.103Z,79.67
2019-03-19T03:35:50.340Z,79.89
2019-03-19T03:38:23.345Z,80.06
2019-03-19T03:40:54.614Z,80.02
2019-03-19T03:43:25.381Z,79.75
2019-03-19T03:45:57.494Z,80.21
2019-03-19T03:48:29.991Z,80.35
2019-03-19T03:51:00.191Z,80.42
2019-03-19T03:53:30.321Z,80.26
2019-03-19T03:56:00.545Z,80.37
2019-03-19T03:58:30.692Z,80.15
2019-03-19T04:01:03.969Z,80.32
2019-03-19T04:03:37.837Z,80.19
2019-03-19T04:06:08.154Z,80.29
2019-03-19T04:08:38.277Z,80.13
2019-03-19T04:11:08.505Z,80.33
2019-03-19T04:13:38.616Z,80.08
2019-03-19T04:16:14.026Z,80.32
2019-03-19T04:18:46.193Z,80.37
2019-03-19T04:21:20.548Z,80.75
2019-03-19T04:23:50.711Z,80.59
2019-03-19T04:26:20.928Z,80.53
2019-03-19T04:28:52.633Z,80.53
2019-03-19T04:31:26.721Z,80.57
2019-03-19T04:34:01.430Z,80.72
2019-03-19T04:36:31.588Z,80.76
2019-03-19T04:39:08.517Z,80.53
2019-03-19T04:41:38.718Z,80.18
2019-03-19T04:44:08.901Z,80.13
2019-03-19T04:46:39.064Z,79.55
2019-03-19T04:49:16.345Z,79.59
2019-03-19T04:51:46.584Z,79.26
2019-03-19T04:54:16.750Z,78.75
2019-03-19T04:56:49.060Z,78.72
2019-03-19T04:59:19.225Z,78.79
2019-03-19T05:01:49.425Z,78.83
2019-03-19T05:04:29.354Z,78.68
2019-03-19T05:06:59.533Z,78.28
2019-03-19T05:09:29.833Z,78.14
2019-03-19T05:11:59.951Z,78.35
2019-03-19T05:14:31.262Z,78.42
2019-03-19T05:17:05.385Z,78.46
2019-03-19T05:19:46.051Z,78.63
2019-03-19T05:22:17.377Z,78.93
2019-03-19T05:24:47.517Z,79.08
2019-03-19T05:27:17.746Z,78.85
2019-03-19T05:29:49.399Z,78.47
2019-03-19T05:32:23.925Z,78.95
2019-03-19T05:35:02.018Z,78.87
2019-03-19T05:37:33.869Z,78.98
2019-03-19T05:40:06.097Z,79.03
2019-03-19T05:42:39.344Z,78.94
2019-03-19T05:47:59.701Z,79.36
2019-03-19T05:50:32.915Z,79.25
2019-03-19T05:53:03.219Z,79.17
2019-03-19T05:55:33.491Z,79.57
2019-03-19T05:58:03.741Z,79.03
2019-03-19T06:00:34.109Z,79.17
2019-03-19T06:03:04.836Z,79.42
2019-03-19T06:05:40.361Z,79.42
2019-03-19T06:08:10.587Z,78.94
2019-03-19T06:10:42.294Z,78.76
2019-03-19T06:13:12.491Z,78.28
2019-03-19T06:15:47.114Z,78.10
2019-03-19T06:18:17.326Z,77.78
2019-03-19T06:20:49.197Z,77.31
2019-03-19T06:23:19.414Z,77.13
2019-03-19T06:25:51.104Z,76.97
2019-03-19T06:28:21.467Z,76.33
2019-03-19T06:30:51.673Z,76.06
2019-03-19T06:33:23.552Z,75.92
2019-03-19T06:35:53.887Z,76.06
2019-03-19T06:38:27.337Z,76.01
2019-03-19T06:40:57.667Z,76.02
2019-03-19T06:43:31.097Z,76.27
2019-03-19T06:46:01.345Z,76.19
2019-03-19T06:48:33.068Z,76.29
2019-03-19T06:51:06.140Z,76.23
2019-03-19T06:53:36.457Z,76.59
2019-03-19T06:56:07.006Z,76.76
2019-03-19T06:58:37.251Z,76.62
2019-03-19T07:01:09.446Z,76.88
2019-03-19T07:03:39.804Z,76.61
2019-03-19T07:06:11.445Z,76.44
2019-03-19T07:08:43.205Z,76.34
2019-03-19T07:11:13.758Z,76.62
2019-03-19T07:13:45.687Z,76.88
2019-03-19T07:16:16.021Z,76.74
2019-03-19T07:18:47.302Z,76.36
2019-03-19T07:21:17.643Z,76.34
2019-03-19T07:23:47.893Z,76.06
2019-03-19T07:26:18.363Z,75.86
2019-03-19T07:28:48.629Z,75.91
2019-03-19T07:31:30.157Z,75.75
2019-03-19T07:33:50.995Z,75.65
2019-03-19T07:36:21.329Z,75.53
2019-03-19T07:38:55.467Z,75.45
2019-03-19T07:41:25.868Z,75.40
2019-03-19T07:43:56.157Z,74.90
2019-03-19T07:46:28.722Z,74.65
2019-03-19T07:49:05.293Z,74.55
2019-03-19T07:51:35.679Z,74.21
2019-03-19T07:54:06.046Z,74.05
2019-03-19T07:56:40.218Z,73.78
2019-03-19T07:59:11.099Z,73.44
2019-03-19T08:01:41.467Z,73.26
2019-03-19T08:04:11.705Z,73.16
2019-03-19T08:06:43.080Z,72.75
2019-03-19T08:09:13.632Z,72.27
2019-03-19T08:11:43.855Z,72.01
2019-03-19T08:14:14.169Z,72.16
2019-03-19T08:16:47.455Z,71.78
2019-03-19T08:19:20.168Z,71.61
2019-03-19T08:21:53.325Z,71.03
2019-03-19T08:24:24.095Z,70.49
2019-03-19T08:26:54.385Z,70.88
2019-03-19T08:29:27.737Z,70.45
2019-03-19T08:32:01.699Z,70.66
2019-03-19T08:34:31.990Z,70.11
2019-03-19T08:37:02.244Z,69.80
2019-03-19T08:39:32.482Z,69.58
2019-03-19T08:42:03.144Z,69.32
2019-03-19T08:44:33.362Z,69.40
2019-03-19T08:47:03.649Z,68.84
2019-03-19T08:49:33.965Z,67.93
2019-03-19T08:52:04.103Z,67.79
2019-03-19T08:54:35.274Z,66.79
2019-03-19T08:57:05.537Z,66.35
2019-03-19T08:59:35.726Z,65.90
2019-03-19T09:02:05.922Z,64.75
2019-03-19T09:04:36.203Z,64.76
2019-03-19T09:07:10.255Z,65.26
2019-03-19T09:09:40.500Z,64.67
2019-03-19T09:12:10.842Z,64.21
2019-03-19T09:14:41.033Z,63.92
2019-03-19T09:17:11.310Z,64.42
2019-03-19T09:19:41.592Z,64.15
2019-03-19T09:22:11.918Z,63.34
2019-03-19T09:24:42.339Z,62.64
2019-03-19T09:27:12.581Z,62.82
2019-03-19T09:29:42.941Z,62.64
2019-03-19T09:32:13.111Z,62.32
2019-03-19T09:34:43.482Z,62.00
2019-03-19T09:37:13.674Z,59.82
2019-03-19T09:39:44.115Z,60.24
2019-03-19T09:42:14.450Z,60.07
2019-03-19T09:44:44.818Z,60.61
2019-03-19T09:47:18.288Z,60.22
2019-03-19T09:49:51.555Z,58.47
2019-03-19T09:52:24.648Z,57.21
2019-03-19T09:54:57.764Z,56.61
2019-03-19T09:57:28.075Z,57.92
2019-03-19T09:59:58.542Z,58.63
2019-03-19T10:02:31.488Z,58.43
2019-03-19T10:05:03.331Z,58.01
2019-03-19T10:07:33.647Z,58.02
2019-03-19T10:10:04.343Z,58.09
2019-03-19T10:12:34.499Z,58.71
2019-03-19T10:15:08.193Z,59.02
2019-03-19T10:17:39.517Z,58.75
2019-03-19T10:20:12.878Z,58.19
2019-03-19T10:22:46.588Z,55.38
2019-03-19T10:25:17.253Z,55.03
2019-03-19T10:27:50.204Z,54.66
2019-03-19T10:30:20.577Z,54.52
2019-03-19T10:32:50.896Z,54.99
2019-03-19T10:35:21.261Z,55.49
2019-03-19T10:37:51.640Z,55.08
2019-03-19T10:40:22.124Z,55.59
2019-03-19T10:42:52.571Z,56.14
2019-03-19T10:45:24.735Z,56.03
2019-03-19T10:47:54.999Z,54.69
2019-03-19T10:50:28.387Z,54.75
2019-03-19T10:52:58.880Z,55.42
2019-03-19T10:55:29.539Z,55.63
2019-03-19T10:58:10.364Z,54.91
2019-03-19T11:00:33.949Z,53.91
2019-03-19T11:03:04.899Z,51.50
2019-03-19T11:05:35.907Z,49.65
2019-03-19T11:08:13.969Z,48.60
2019-03-19T11:10:46.359Z,49.30
2019-03-19T11:13:16.988Z,49.52
2019-03-19T11:15:47.169Z,49.37
2019-03-19T11:18:17.429Z,50.49
2019-03-19T11:20:47.747Z,49.47
2019-03-19T11:23:18.027Z,49.36
2019-03-19T11:25:54.509Z,49.94
2019-03-19T11:28:22.021Z,51.01
2019-03-19T11:30:53.733Z,50.80
2019-03-19T11:33:24.105Z,50.26
2019-03-19T11:35:54.571Z,50.18
2019-03-19T11:38:24.843Z,50.17
2019-03-19T11:40:55.125Z,50.71
2019-03-19T11:43:25.386Z,50.84
2019-03-19T11:45:59.804Z,50.92
2019-03-19T11:48:31.165Z,51.63
2019-03-19T11:51:01.558Z,50.79
2019-03-19T11:53:31.767Z,49.47
2019-03-19T11:56:03.239Z,49.10
2019-03-19T11:58:33.468Z,49.04
2019-03-19T12:01:06.048Z,49.80
2019-03-19T12:03:37.475Z,49.61
2019-03-19T12:06:07.774Z,50.07
2019-03-19T12:08:38.090Z,49.81
2019-03-19T12:11:09.365Z,49.75
2019-03-19T12:13:39.840Z,49.52
2019-03-19T12:16:09.999Z,46.65
2019-03-19T12:18:40.647Z,46.78
2019-03-19T12:21:10.789Z,47.36
2019-03-19T12:23:42.553Z,48.99
2019-03-19T12:26:15.027Z,49.87
2019-03-19T12:28:45.848Z,49.91
2019-03-19T12:31:16.001Z,49.51
2019-03-19T12:33:46.713Z,49.36
2019-03-19T12:36:19.145Z,49.26
2019-03-19T12:38:49.457Z,49.58
2019-03-19T12:41:19.748Z,49.38
2019-03-19T12:43:49.955Z,48.71
2019-03-19T12:46:20.191Z,46.82
2019-03-19T12:48:50.436Z,46.88
2019-03-19T12:51:24.476Z,47.83
2019-03-19T12:53:55.282Z,47.09
2019-03-19T12:56:29.909Z,46.09
2019-03-19T12:59:03.233Z,47.58
2019-03-19T13:01:41.221Z,48.82
2019-03-19T13:04:13.556Z,47.53
2019-03-19T13:06:43.873Z,48.04
2019-03-19T13:09:16.604Z,46.44
2019-03-19T13:11:46.834Z,46.71
2019-03-19T13:14:17.116Z,46.31
2019-03-19T13:16:47.292Z,45.77
2019-03-19T13:19:17.708Z,43.71
2019-03-19T13:21:48.012Z,44.90
2019-03-19T13:24:18.282Z,44.12
2019-03-19T13:26:48.402Z,44.63
2019-03-19T13:29:20.070Z,44.52
2019-03-19T13:31:52.206Z,44.14
2019-03-19T13:34:22.988Z,43.61
2019-03-19T13:36:53.461Z,43.63
2019-03-19T13:39:23.938Z,43.25
2019-03-19T13:41:59.270Z,43.71
2019-03-19T13:44:29.934Z,43.78
2019-03-19T13:47:00.253Z,43.81
2019-03-19T13:49:33.159Z,44.31
2019-03-19T13:52:06.558Z,44.21
2019-03-19T13:54:39.497Z,44.76
2019-03-19T13:57:09.696Z,45.01
2019-03-19T13:59:40.403Z,45.43
2019-03-19T14:02:12.863Z,44.73
2019-03-19T14:04:44.066Z,43.99
2019-03-19T14:07:14.330Z,43.40
2019-03-19T14:09:44.616Z,42.84
2019-03-19T14:12:16.633Z,43.16
2019-03-19T14:14:46.920Z,43.70
2019-03-19T14:17:17.289Z,42.62
2019-03-19T14:19:51.233Z,42.80
2019-03-19T14:22:21.948Z,43.54
2019-03-19T14:24:52.340Z,42.41
2019-03-19T14:27:23.569Z,43.12
2019-03-19T14:29:55.019Z,44.06
2019-03-19T14:32:25.375Z,44.63
2019-03-19T14:34:55.730Z,44.46
2019-03-19T14:37:26.300Z,43.84
2019-03-19T14:39:56.631Z,43.58
2019-03-19T14:42:27.463Z,43.76
2019-03-19T14:44:57.813Z,43.72
2019-03-19T14:47:28.352Z,43.57
2019-03-19T14:49:58.973Z,43.86
2019-03-19T14:52:30.550Z,43.33
2019-03-19T14:55:01.103Z,42.91
2019-03-19T14:57:31.909Z,43.04
2019-03-19T15:00:02.225Z,42.57
2019-03-19T15:02:33.945Z,42.93
2019-03-19T15:05:04.651Z,44.33
2019-03-19T15:07:34.983Z,44.45
2019-03-19T15:10:08.603Z,44.29
2019-03-19T15:12:38.783Z,44.95
2019-03-19T15:15:10.228Z,45.28
2019-03-19T15:17:42.530Z,45.62
2019-03-19T15:20:15.162Z,45.77
2019-03-19T15:22:46.431Z,45.95
2019-03-19T15:25:19.493Z,46.03
2019-03-19T15:27:50.188Z,46.65
2019-03-19T15:30:20.529Z,44.92
2019-03-19T15:32:53.723Z,45.92
2019-03-19T15:35:25.773Z,45.81
2019-03-19T15:37:56.481Z,46.32
2019-03-19T15:40:28.659Z,46.76
2019-03-19T15:43:00.854Z,46.74
2019-03-19T15:45:30.945Z,47.17
2019-03-19T15:48:02.286Z,47.65
2019-03-19T15:50:32.633Z,47.29
2019-03-19T15:53:05.111Z,47.29
2019-03-19T15:55:35.709Z,47.37
2019-03-19T15:58:06.064Z,47.68
2019-03-19T16:00:38.804Z,48.29
2019-03-19T16:03:11.448Z,48.03
2019-03-19T16:05:41.928Z,47.63
2019-03-19T16:08:13.088Z,47.37
2019-03-19T16:10:45.012Z,46.52
2019-03-19T16:13:17.683Z,45.66
2019-03-19T16:15:48.129Z,45.63
2019-03-19T16:18:18.583Z,45.63
2019-03-19T16:20:52.006Z,44.89
2019-03-19T16:23:22.308Z,45.22
2019-03-19T16:25:52.965Z,45.06
2019-03-19T16:28:23.533Z,44.51
2019-03-19T16:30:54.258Z,44.08
2019-03-19T16:33:26.524Z,43.58
2019-03-19T16:35:58.523Z,44.52
2019-03-19T16:38:28.774Z,44.54
2019-03-19T16:41:03.998Z,43.87
2019-03-19T16:43:34.363Z,43.12
2019-03-19T16:46:06.791Z,44.05
2019-03-19T16:48:40.412Z,43.98
2019-03-19T16:51:10.689Z,43.76
2019-03-19T16:53:40.881Z,44.12
2019-03-19T16:56:11.099Z,44.38
2019-03-19T16:58:43.847Z,44.36
2019-03-19T17:01:23.691Z,44.54
2019-03-19T17:03:54.856Z,44.75
2019-03-19T17:06:25.088Z,44.24
2019-03-19T17:08:58.677Z,44.33
2019-03-19T17:11:32.446Z,44.22
2019-03-19T17:14:14.812Z,44.47
2019-03-19T17:17:06.116Z,44.72
2019-03-19T17:19:41.526Z,44.35
2019-03-19T17:22:26.116Z,44.70
2019-03-19T17:25:02.425Z,44.53
2019-03-19T17:27:40.566Z,44.49
2019-03-19T17:30:17.103Z,44.96
2019-03-19T17:32:46.776Z,45.57
2019-03-19T17:35:17.675Z,45.74
2019-03-19T17:37:48.026Z,46.46
2019-03-19T17:40:22.901Z,46.83
2019-03-19T17:42:56.038Z,47.35
2019-03-19T17:45:30.320Z,47.68
2019-03-19T17:48:03.728Z,47.77
2019-03-19T17:50:34.121Z,47.76
2019-03-19T17:53:05.679Z,48.15
2019-03-19T17:55:40.580Z,48.36
2019-03-19T17:58:10.825Z,48.64
2019-03-19T18:00:43.756Z,48.79
2019-03-19T18:03:13.959Z,48.76
2019-03-19T18:05:44.333Z,49.01
2019-03-19T18:08:14.808Z,49.25
2019-03-19T18:10:51.528Z,49.25
2019-03-19T18:13:22.862Z,49.40
2019-03-19T18:15:53.099Z,49.60
2019-03-19T18:18:23.369Z,49.68
2019-03-19T18:20:59.854Z,49.88
2019-03-19T18:23:37.571Z,50.14
2019-03-19T18:26:06.705Z,50.14
2019-03-19T18:28:36.964Z,50.34
2019-03-19T18:31:07.210Z,50.48
2019-03-19T18:33:37.555Z,50.69
2019-03-19T18:36:07.755Z,50.56
2019-03-19T18:38:39.106Z,50.69
2019-03-19T18:41:11.500Z,50.81
2019-03-19T18:43:42.217Z,50.97
2019-03-19T18:46:12.620Z,51.44
2019-03-19T18:48:43.108Z,51.71
2019-03-19T18:51:13.880Z,51.73
2019-03-19T18:53:44.239Z,52.03
2019-03-19T18:56:15.817Z,52.87
2019-03-19T18:58:48.697Z,53.12
2019-03-19T19:01:20.246Z,53.22
2019-03-19T19:03:50.561Z,53.33
2019-03-19T19:06:27.205Z,53.47
2019-03-19T19:08:58.487Z,53.60
2019-03-19T19:11:29.377Z,53.80
2019-03-19T19:13:59.828Z,54.70
2019-03-19T19:16:33.382Z,54.44
2019-03-19T19:19:04.032Z,54.60
2019-03-19T19:21:35.993Z,54.63
2019-03-19T19:24:09.846Z,54.99
2019-03-19T19:26:40.115Z,55.05
2019-03-19T19:29:10.421Z,55.23
2019-03-19T19:31:43.997Z,55.56
2019-03-19T19:34:14.927Z,55.94
2019-03-19T19:36:47.588Z,56.51
2019-03-19T19:39:32.430Z,56.79
2019-03-19T19:42:03.510Z,56.86
2019-03-19T19:44:33.862Z,56.99
2019-03-19T19:47:05.910Z,57.56
2019-03-19T19:49:36.371Z,57.49
2019-03-19T19:52:07.103Z,57.63
2019-03-19T19:54:41.779Z,58.37
2019-03-19T19:57:13.129Z,58.03
2019-03-19T19:59:44.374Z,58.12
2019-03-19T20:02:14.959Z,58.23
2019-03-19T20:04:45.833Z,58.37
2019-03-19T20:07:19.500Z,58.47
2019-03-19T20:09:49.933Z,59.40
2019-03-19T20:12:20.145Z,59.23
2019-03-19T20:14:51.311Z,59.05
2019-03-19T20:17:21.647Z,59.15
2019-03-19T20:19:54.260Z,59.82
2019-03-19T20:22:24.638Z,60.42
2019-03-19T20:24:56.064Z,60.42
2019-03-19T20:27:26.530Z,60.13
2019-03-19T20:29:59.891Z,60.23
2019-03-19T20:32:33.237Z,60.69
2019-03-19T20:35:03.925Z,60.83
2019-03-19T20:37:34.424Z,61.41
2019-03-19T20:40:07.686Z,61.50
2019-03-19T20:42:38.463Z,62.18
2019-03-19T20:45:10.154Z,62.14
2019-03-19T20:47:43.193Z,62.38
2019-03-19T20:50:19.386Z,62.68
2019-03-19T20:52:56.708Z,62.33
2019-03-19T20:55:27.495Z,62.79
2019-03-19T20:58:00.687Z,63.27
2019-03-19T21:00:32.906Z,63.28
2019-03-19T21:03:13.425Z,62.91
2019-03-19T21:05:45.887Z,63.40
2019-03-19T21:08:23.268Z,63.08
2019-03-19T21:10:58.299Z,63.71
2019-03-19T21:13:30.355Z,64.10
2019-03-19T21:16:01.322Z,64.27
2019-03-19T21:18:34.132Z,64.39
2019-03-19T21:21:08.535Z,64.62
2019-03-19T21:23:39.321Z,64.72
2019-03-19T21:26:10.142Z,65.06
2019-03-19T21:28:40.568Z,65.17
2019-03-19T21:31:13.026Z,65.13
2019-03-19T21:33:51.143Z,65.37
2019-03-19T21:36:18.111Z,65.62
2019-03-19T21:38:49.426Z,66.04
2019-03-19T21:41:19.782Z,65.68
2019-03-19T21:43:50.098Z,66.01
2019-03-19T21:46:20.303Z,65.75
2019-03-19T21:48:51.014Z,65.90
2019-03-19T21:51:21.148Z,66.11
2019-03-19T21:53:51.390Z,66.17
2019-03-19T21:56:21.782Z,66.04
2019-03-19T21:58:52.048Z,66.26
2019-03-19T22:01:23.576Z,66.51
2019-03-19T22:04:03.041Z,66.55
2019-03-19T22:06:59.486Z,66.77
2019-03-19T22:09:29.898Z,67.08
2019-03-19T22:12:00.241Z,66.74
2019-03-19T22:14:32.162Z,66.84
2019-03-19T22:17:02.396Z,66.88
2019-03-19T22:19:32.726Z,67.46
2019-03-19T22:22:03.052Z,67.30
2019-03-19T22:24:34.681Z,67.68
2019-03-19T22:27:04.920Z,67.82
2019-03-19T22:29:35.404Z,67.31
2019-03-19T22:32:06.062Z,67.51
2019-03-19T22:34:43.992Z,67.79
2019-03-19T22:37:14.726Z,68.06
2019-03-19T22:39:45.663Z,68.18
2019-03-19T22:42:19.220Z,67.93
2019-03-19T22:44:49.538Z,68.05
2019-03-19T22:47:20.382Z,68.14
2019-03-19T22:49:52.354Z,68.29
2019-03-19T22:52:22.668Z,68.67
2019-03-19T22:54:53.393Z,68.72
2019-03-19T22:57:27.282Z,68.54
2019-03-19T22:59:57.632Z,68.10
2019-03-19T23:02:28.248Z,68.13
2019-03-19T23:04:58.540Z,67.97
2019-03-19T23:07:28.883Z,67.60
2019-03-19T23:09:59.024Z,67.48
2019-03-19T23:12:31.550Z,67.32
2019-03-19T23:15:01.763Z,67.40
2019-03-19T23:17:32.336Z,67.28
2019-03-19T23:20:03.962Z,67.51
2019-03-19T23:22:34.226Z,67.41
2019-03-19T23:25:05.315Z,67.44
2019-03-19T23:27:35.535Z,67.37
2019-03-19T23:30:06.642Z,67.26
2019-03-19T23:32:36.885Z,67.38
2019-03-19T23:35:07.153Z,67.52
2019-03-19T23:37:39.304Z,67.50
2019-03-19T23:40:09.728Z,67.66
2019-03-19T23:42:39.811Z,67.65
2019-03-19T23:45:10.393Z,67.75
2019-03-19T23:47:40.792Z,67.56
2019-03-19T23:50:11.649Z,67.60
2019-03-19T23:52:41.851Z,67.57
2019-03-19T23:55:13.249Z,67.87
2019-03-19T23:57:43.334Z,67.77
